Alplaus, NY

1:13 PM EDT on September 02, 2015 (GMT -0400)
Daily Gazette | | Change Station
CLOSE
Current Station
Personal Weather Station
Location: Schenectady, NY
Elevation: 295 ft
Nearby Weather Stations

Elev 295 ft 42.83 °N, 73.92 °W | Updated 14 seconds ago

Partly Cloudy
Partly Cloudy
84.9 °F
Feels Like 87 °F
N
2.9
Wind Variable Wind from NNW
Gusts 17.0 mph

Today
High -- | Low -- °F
--% Chance of Precip.
Yesterday
High -- | Low -- °F
Precip. -- in
6:21 AM 7:28 PM
Waning Gibbous, 79% visible
Pressure 29.97 in
Visibility 10.0 miles
Clouds Scattered Clouds 3700 ft
Heat Index 87 °F
Dew Point 66 °F
Humidity 53%
Rainfall 0.00 in
Snow Depth Not available.
UV 7 out of 12
Pollen 9.30 out of 12
Air Quality Not available.
Flu Activity Not available.
METAR KALB 021651Z 34004KT 10SM SCT037 29/19 A2998 RMK AO2 SLP149 T02940189
Pressure 29.97 in
Visibility 10.0 miles
Clouds Scattered Clouds 3700 ft
Heat Index 87 °F
Dew Point 66 °F
Humidity 53%
Rainfall 0.00 in
Snow Depth Not available.
UV 7 out of 12
Pollen 9.30 out of 12
Air Quality Not available.
Flu Activity Not available.
METAR KALB 021651Z 34004KT 10SM SCT037 29/19 A2998 RMK AO2 SLP149 T02940189

10-Day Weather Forecast

×

Almanac

Astronomy

Sep. 02, 2015 Rise Set
Actual Time
Civil Twilight
Nautical Twilight
Astronomical Twilight
Moon
Length of Visible Light
Length of Day
Tomorrow will be .
, % of the Moon is Illuminated

Today's Extremes

State Highs State Lows

Community

WunderPhotos

Upload Photos

1,851,785 photos uploaded!

WunderBlogs® & News

Nearby

Air Quality

  Air Quality AQ Index Pollutant
Not available.

Snow Depth

Station Depth Elevation

Earthquake Activity

City Distance Mag. Time & Date
Minimum magnitude displayed is 2.5.

Coastal Water Temperatures

Place Temperature

Stations

Nearby Weather Stations

Station Location Temp. Windchill Dew Point Humidity Wind Precip. Elev Updated Type